sensor_id;sensor_type;location;lat;lon;timestamp;P1;durP1;ratioP1;P2;durP2;ratioP2
50821;SDS011;36794;51.212;6.980;2022-09-03T00:03:05;4.20;;;0.70;;
50821;SDS011;36794;51.212;6.980;2022-09-03T00:05:39;1.30;;;0.45;;
50821;SDS011;36794;51.212;6.980;2022-09-03T00:08:26;2.20;;;0.63;;
50821;SDS011;36794;51.212;6.980;2022-09-03T00:11:11;2.30;;;0.50;;
50821;SDS011;36794;51.212;6.980;2022-09-03T00:13:41;3.60;;;0.60;;
50821;SDS011;36794;51.212;6.980;2022-09-03T00:16:10;4.15;;;0.50;;
50821;SDS011;36794;51.212;6.980;2022-09-03T00:18:44;3.03;;;0.50;;
50821;SDS011;36794;51.212;6.980;2022-09-03T00:26:27;2.25;;;0.95;;
50821;SDS011;36794;51.212;6.980;2022-09-03T00:29:02;1.42;;;0.70;;
50821;SDS011;36794;51.212;6.980;2022-09-03T00:31:44;3.10;;;0.60;;
50821;SDS011;36794;51.212;6.980;2022-09-03T00:34:25;1.73;;;0.55;;
50821;SDS011;36794;51.212;6.980;2022-09-03T00:36:52;1.70;;;0.55;;
50821;SDS011;36794;51.212;6.980;2022-09-03T00:39:19;3.33;;;0.70;;
50821;SDS011;36794;51.212;6.980;2022-09-03T00:46:56;1.98;;;0.60;;
50821;SDS011;36794;51.212;6.980;2022-09-03T01:00:02;5.28;;;0.85;;
50821;SDS011;36794;51.212;6.980;2022-09-03T01:13:06;5.72;;;0.50;;
50821;SDS011;36794;51.212;6.980;2022-09-03T01:15:43;1.10;;;0.60;;
50821;SDS011;36794;51.212;6.980;2022-09-03T01:18:19;2.85;;;0.50;;
50821;SDS011;36794;51.212;6.980;2022-09-03T01:26:02;1.98;;;0.60;;
50821;SDS011;36794;51.212;6.980;2022-09-03T01:31:42;6.05;;;0.60;;
50821;SDS011;36794;51.212;6.980;2022-09-03T01:34:14;4.22;;;0.68;;
50821;SDS011;36794;51.212;6.980;2022-09-03T01:36:50;1.75;;;0.63;;
50821;SDS011;36794;51.212;6.980;2022-09-03T01:41:55;4.07;;;0.60;;
50821;SDS011;36794;51.212;6.980;2022-09-03T01:49:52;2.50;;;0.60;;
50821;SDS011;36794;51.212;6.980;2022-09-03T01:52:27;2.22;;;0.50;;
50821;SDS011;36794;51.212;6.980;2022-09-03T01:55:08;1.92;;;0.60;;
50821;SDS011;36794;51.212;6.980;2022-09-03T02:02:29;2.03;;;0.70;;
50821;SDS011;36794;51.212;6.980;2022-09-03T02:04:58;1.00;;;0.50;;
50821;SDS011;36794;51.212;6.980;2022-09-03T02:07:25;2.75;;;0.50;;
50821;SDS011;36794;51.212;6.980;2022-09-03T02:09:52;1.98;;;0.52;;
50821;SDS011;36794;51.212;6.980;2022-09-03T02:12:18;1.25;;;0.55;;
50821;SDS011;36794;51.212;6.980;2022-09-03T02:14:45;2.90;;;0.57;;
50821;SDS011;36794;51.212;6.980;2022-09-03T02:17:12;3.03;;;0.50;;
50821;SDS011;36794;51.212;6.980;2022-09-03T02:19:38;4.40;;;0.75;;
50821;SDS011;36794;51.212;6.980;2022-09-03T02:22:04;2.33;;;0.60;;
50821;SDS011;36794;51.212;6.980;2022-09-03T02:24:31;2.45;;;0.60;;
50821;SDS011;36794;51.212;6.980;2022-09-03T02:26:57;3.08;;;0.68;;
50821;SDS011;36794;51.212;6.980;2022-09-03T02:29:23;3.08;;;0.40;;
50821;SDS011;36794;51.212;6.980;2022-09-03T02:31:49;0.82;;;0.57;;
50821;SDS011;36794;51.212;6.980;2022-09-03T02:34:15;4.88;;;0.40;;
50821;SDS011;36794;51.212;6.980;2022-09-03T02:36:45;6.82;;;0.70;;
50821;SDS011;36794;51.212;6.980;2022-09-03T02:39:11;1.13;;;0.40;;
50821;SDS011;36794;51.212;6.980;2022-09-03T02:41:37;1.92;;;0.70;;
50821;SDS011;36794;51.212;6.980;2022-09-03T02:44:21;1.20;;;0.50;;
50821;SDS011;36794;51.212;6.980;2022-09-03T02:46:56;1.85;;;0.55;;
50821;SDS011;36794;51.212;6.980;2022-09-03T02:49:23;0.85;;;0.52;;
50821;SDS011;36794;51.212;6.980;2022-09-03T02:51:49;3.38;;;0.50;;
50821;SDS011;36794;51.212;6.980;2022-09-03T02:54:15;2.67;;;0.60;;
50821;SDS011;36794;51.212;6.980;2022-09-03T02:56:41;2.35;;;0.60;;
50821;SDS011;36794;51.212;6.980;2022-09-03T02:59:07;1.98;;;0.60;;
50821;SDS011;36794;51.212;6.980;2022-09-03T03:01:34;0.90;;;0.40;;
50821;SDS011;36794;51.212;6.980;2022-09-03T03:04:01;3.28;;;0.55;;
50821;SDS011;36794;51.212;6.980;2022-09-03T03:06:27;1.73;;;0.60;;
50821;SDS011;36794;51.212;6.980;2022-09-03T03:08:53;3.28;;;0.60;;
50821;SDS011;36794;51.212;6.980;2022-09-03T03:11:21;2.15;;;0.50;;
50821;SDS011;36794;51.212;6.980;2022-09-03T03:13:48;1.35;;;0.50;;
50821;SDS011;36794;51.212;6.980;2022-09-03T03:16:14;1.20;;;0.50;;
50821;SDS011;36794;51.212;6.980;2022-09-03T03:18:40;3.90;;;0.70;;
50821;SDS011;36794;51.212;6.980;2022-09-03T03:21:07;0.80;;;0.50;;
50821;SDS011;36794;51.212;6.980;2022-09-03T03:23:34;1.25;;;0.50;;
50821;SDS011;36794;51.212;6.980;2022-09-03T03:26:04;4.05;;;0.57;;
50821;SDS011;36794;51.212;6.980;2022-09-03T03:28:31;2.80;;;0.50;;
50821;SDS011;36794;51.212;6.980;2022-09-03T03:31:19;0.63;;;0.50;;
50821;SDS011;36794;51.212;6.980;2022-09-03T03:33:49;2.03;;;0.50;;
50821;SDS011;36794;51.212;6.980;2022-09-03T03:36:16;3.63;;;0.80;;
50821;SDS011;36794;51.212;6.980;2022-09-03T03:38:42;2.72;;;1.58;;
50821;SDS011;36794;51.212;6.980;2022-09-03T03:43:34;1.20;;;0.60;;
50821;SDS011;36794;51.212;6.980;2022-09-03T03:46:00;1.70;;;0.60;;
50821;SDS011;36794;51.212;6.980;2022-09-03T03:48:26;2.70;;;1.05;;
50821;SDS011;36794;51.212;6.980;2022-09-03T03:50:52;4.82;;;0.57;;
50821;SDS011;36794;51.212;6.980;2022-09-03T03:53:18;2.83;;;0.60;;
50821;SDS011;36794;51.212;6.980;2022-09-03T03:55:57;2.03;;;0.60;;
50821;SDS011;36794;51.212;6.980;2022-09-03T03:58:24;1.27;;;0.63;;
50821;SDS011;36794;51.212;6.980;2022-09-03T04:00:50;4.88;;;0.70;;
50821;SDS011;36794;51.212;6.980;2022-09-03T04:03:17;1.30;;;0.50;;
50821;SDS011;36794;51.212;6.980;2022-09-03T04:05:43;2.22;;;0.60;;
50821;SDS011;36794;51.212;6.980;2022-09-03T04:08:18;1.15;;;0.75;;
50821;SDS011;36794;51.212;6.980;2022-09-03T04:10:44;1.58;;;0.52;;
50821;SDS011;36794;51.212;6.980;2022-09-03T04:13:11;0.75;;;0.50;;
50821;SDS011;36794;51.212;6.980;2022-09-03T04:15:37;3.53;;;0.50;;
50821;SDS011;36794;51.212;6.980;2022-09-03T04:18:03;2.33;;;0.67;;
50821;SDS011;36794;51.212;6.980;2022-09-03T04:20:29;2.20;;;0.70;;
50821;SDS011;36794;51.212;6.980;2022-09-03T04:22:58;5.32;;;0.90;;
50821;SDS011;36794;51.212;6.980;2022-09-03T04:25:25;3.88;;;0.63;;
50821;SDS011;36794;51.212;6.980;2022-09-03T04:27:51;2.03;;;0.90;;
50821;SDS011;36794;51.212;6.980;2022-09-03T04:30:23;3.58;;;0.80;;
50821;SDS011;36794;51.212;6.980;2022-09-03T04:32:49;3.05;;;0.52;;
50821;SDS011;36794;51.212;6.980;2022-09-03T04:35:22;0.95;;;0.50;;
50821;SDS011;36794;51.212;6.980;2022-09-03T04:37:49;2.08;;;0.60;;
50821;SDS011;36794;51.212;6.980;2022-09-03T04:40:15;1.23;;;0.52;;
50821;SDS011;36794;51.212;6.980;2022-09-03T04:42:41;1.20;;;0.50;;
50821;SDS011;36794;51.212;6.980;2022-09-03T04:45:07;1.95;;;0.80;;
50821;SDS011;36794;51.212;6.980;2022-09-03T04:47:33;2.67;;;0.60;;
50821;SDS011;36794;51.212;6.980;2022-09-03T04:50:03;5.20;;;0.60;;
50821;SDS011;36794;51.212;6.980;2022-09-03T04:52:29;1.10;;;0.57;;
50821;SDS011;36794;51.212;6.980;2022-09-03T04:54:56;2.15;;;0.85;;
50821;SDS011;36794;51.212;6.980;2022-09-03T04:57:22;2.80;;;0.63;;
50821;SDS011;36794;51.212;6.980;2022-09-03T04:59:48;1.25;;;0.70;;
50821;SDS011;36794;51.212;6.980;2022-09-03T05:02:14;2.95;;;0.75;;
50821;SDS011;36794;51.212;6.980;2022-09-03T05:04:40;1.30;;;0.50;;
50821;SDS011;36794;51.212;6.980;2022-09-03T05:07:06;1.67;;;0.50;;
50821;SDS011;36794;51.212;6.980;2022-09-03T05:09:32;1.55;;;0.60;;
50821;SDS011;36794;51.212;6.980;2022-09-03T05:11:58;3.10;;;0.60;;
50821;SDS011;36794;51.212;6.980;2022-09-03T05:14:24;3.40;;;0.70;;
50821;SDS011;36794;51.212;6.980;2022-09-03T05:16:50;1.60;;;0.60;;
50821;SDS011;36794;51.212;6.980;2022-09-03T05:19:16;1.45;;;0.60;;
50821;SDS011;36794;51.212;6.980;2022-09-03T05:21:42;2.25;;;0.73;;
50821;SDS011;36794;51.212;6.980;2022-09-03T05:24:09;1.83;;;0.60;;
50821;SDS011;36794;51.212;6.980;2022-09-03T05:26:36;10.05;;;0.77;;
50821;SDS011;36794;51.212;6.980;2022-09-03T05:29:03;1.80;;;0.50;;
50821;SDS011;36794;51.212;6.980;2022-09-03T05:31:33;1.40;;;0.55;;
50821;SDS011;36794;51.212;6.980;2022-09-03T05:34:00;3.53;;;0.90;;
50821;SDS011;36794;51.212;6.980;2022-09-03T05:36:28;1.27;;;0.40;;
50821;SDS011;36794;51.212;6.980;2022-09-03T05:38:54;4.55;;;0.60;;
50821;SDS011;36794;51.212;6.980;2022-09-03T05:41:21;1.70;;;0.63;;
50821;SDS011;36794;51.212;6.980;2022-09-03T05:43:48;2.13;;;0.50;;
50821;SDS011;36794;51.212;6.980;2022-09-03T05:46:20;3.38;;;0.50;;
50821;SDS011;36794;51.212;6.980;2022-09-03T05:48:46;2.40;;;0.50;;
50821;SDS011;36794;51.212;6.980;2022-09-03T05:51:13;4.13;;;0.50;;
50821;SDS011;36794;51.212;6.980;2022-09-03T05:53:43;3.38;;;0.80;;
50821;SDS011;36794;51.212;6.980;2022-09-03T05:56:11;2.60;;;0.60;;
50821;SDS011;36794;51.212;6.980;2022-09-03T05:58:38;2.55;;;0.65;;
50821;SDS011;36794;51.212;6.980;2022-09-03T06:01:09;3.13;;;0.50;;
50821;SDS011;36794;51.212;6.980;2022-09-03T06:03:35;7.55;;;0.70;;
50821;SDS011;36794;51.212;6.980;2022-09-03T06:08:56;4.32;;;0.65;;
50821;SDS011;36794;51.212;6.980;2022-09-03T06:11:23;6.85;;;0.70;;
50821;SDS011;36794;51.212;6.980;2022-09-03T06:13:57;4.70;;;0.60;;
50821;SDS011;36794;51.212;6.980;2022-09-03T06:16:39;1.15;;;0.50;;
50821;SDS011;36794;51.212;6.980;2022-09-03T06:19:05;4.55;;;0.77;;
50821;SDS011;36794;51.212;6.980;2022-09-03T06:21:41;1.30;;;0.75;;
50821;SDS011;36794;51.212;6.980;2022-09-03T06:24:28;3.70;;;0.75;;
50821;SDS011;36794;51.212;6.980;2022-09-03T06:26:54;7.82;;;1.10;;
50821;SDS011;36794;51.212;6.980;2022-09-03T06:29:20;2.15;;;0.57;;
50821;SDS011;36794;51.212;6.980;2022-09-03T06:31:46;3.10;;;0.52;;
50821;SDS011;36794;51.212;6.980;2022-09-03T06:34:12;3.03;;;0.65;;
50821;SDS011;36794;51.212;6.980;2022-09-03T06:36:38;2.58;;;0.80;;
50821;SDS011;36794;51.212;6.980;2022-09-03T06:39:07;1.88;;;0.60;;
50821;SDS011;36794;51.212;6.980;2022-09-03T06:41:33;6.40;;;0.55;;
50821;SDS011;36794;51.212;6.980;2022-09-03T06:44:03;2.47;;;0.70;;
50821;SDS011;36794;51.212;6.980;2022-09-03T06:46:30;3.90;;;0.98;;
50821;SDS011;36794;51.212;6.980;2022-09-03T06:48:57;1.85;;;0.60;;
50821;SDS011;36794;51.212;6.980;2022-09-03T06:51:24;5.97;;;0.60;;
50821;SDS011;36794;51.212;6.980;2022-09-03T06:53:51;3.60;;;0.80;;
50821;SDS011;36794;51.212;6.980;2022-09-03T06:56:19;3.90;;;0.70;;
50821;SDS011;36794;51.212;6.980;2022-09-03T06:58:51;1.73;;;0.57;;
50821;SDS011;36794;51.212;6.980;2022-09-03T07:01:18;5.00;;;1.02;;
50821;SDS011;36794;51.212;6.980;2022-09-03T07:03:46;1.73;;;0.60;;
50821;SDS011;36794;51.212;6.980;2022-09-03T07:06:13;2.05;;;0.50;;
50821;SDS011;36794;51.212;6.980;2022-09-03T07:08:39;1.33;;;0.52;;
50821;SDS011;36794;51.212;6.980;2022-09-03T07:11:07;2.75;;;0.63;;
50821;SDS011;36794;51.212;6.980;2022-09-03T07:13:34;1.95;;;0.57;;
50821;SDS011;36794;51.212;6.980;2022-09-03T07:16:05;2.88;;;0.50;;
50821;SDS011;36794;51.212;6.980;2022-09-03T07:18:31;1.98;;;0.60;;
50821;SDS011;36794;51.212;6.980;2022-09-03T07:20:58;3.05;;;0.47;;
50821;SDS011;36794;51.212;6.980;2022-09-03T07:23:24;3.90;;;0.60;;
50821;SDS011;36794;51.212;6.980;2022-09-03T07:25:54;2.72;;;0.60;;
50821;SDS011;36794;51.212;6.980;2022-09-03T07:28:20;3.90;;;1.10;;
50821;SDS011;36794;51.212;6.980;2022-09-03T07:30:47;7.70;;;1.20;;
50821;SDS011;36794;51.212;6.980;2022-09-03T07:33:13;7.35;;;0.45;;
50821;SDS011;36794;51.212;6.980;2022-09-03T07:35:38;1.58;;;0.50;;
50821;SDS011;36794;51.212;6.980;2022-09-03T07:38:04;4.03;;;0.60;;
50821;SDS011;36794;51.212;6.980;2022-09-03T07:40:30;1.65;;;0.70;;
50821;SDS011;36794;51.212;6.980;2022-09-03T07:42:57;3.15;;;0.60;;
50821;SDS011;36794;51.212;6.980;2022-09-03T07:45:27;3.42;;;1.00;;
50821;SDS011;36794;51.212;6.980;2022-09-03T07:47:53;4.50;;;0.95;;
50821;SDS011;36794;51.212;6.980;2022-09-03T07:50:19;1.90;;;0.50;;
50821;SDS011;36794;51.212;6.980;2022-09-03T07:52:45;1.30;;;0.70;;
50821;SDS011;36794;51.212;6.980;2022-09-03T07:55:11;1.35;;;0.63;;
50821;SDS011;36794;51.212;6.980;2022-09-03T07:57:37;2.60;;;0.77;;
50821;SDS011;36794;51.212;6.980;2022-09-03T08:00:04;2.05;;;0.60;;
50821;SDS011;36794;51.212;6.980;2022-09-03T08:02:32;1.73;;;0.85;;
50821;SDS011;36794;51.212;6.980;2022-09-03T08:04:58;4.80;;;1.33;;
50821;SDS011;36794;51.212;6.980;2022-09-03T08:07:25;2.00;;;0.82;;
50821;SDS011;36794;51.212;6.980;2022-09-03T08:09:50;1.88;;;0.85;;
50821;SDS011;36794;51.212;6.980;2022-09-03T08:12:16;5.45;;;0.93;;
50821;SDS011;36794;51.212;6.980;2022-09-03T08:14:42;5.60;;;1.00;;
50821;SDS011;36794;51.212;6.980;2022-09-03T08:17:08;1.42;;;0.70;;
50821;SDS011;36794;51.212;6.980;2022-09-03T08:19:36;2.00;;;0.60;;
50821;SDS011;36794;51.212;6.980;2022-09-03T08:22:04;1.98;;;0.50;;
50821;SDS011;36794;51.212;6.980;2022-09-03T08:24:30;1.33;;;0.60;;
50821;SDS011;36794;51.212;6.980;2022-09-03T08:26:58;1.60;;;0.60;;
50821;SDS011;36794;51.212;6.980;2022-09-03T08:29:24;5.32;;;0.80;;
50821;SDS011;36794;51.212;6.980;2022-09-03T08:31:51;5.57;;;0.80;;
50821;SDS011;36794;51.212;6.980;2022-09-03T08:34:17;3.75;;;1.08;;
50821;SDS011;36794;51.212;6.980;2022-09-03T08:36:44;1.63;;;0.98;;
50821;SDS011;36794;51.212;6.980;2022-09-03T08:39:11;3.47;;;0.98;;
50821;SDS011;36794;51.212;6.980;2022-09-03T08:47:10;3.65;;;0.63;;
50821;SDS011;36794;51.212;6.980;2022-09-03T08:49:48;1.30;;;0.63;;
50821;SDS011;36794;51.212;6.980;2022-09-03T08:52:25;2.75;;;0.75;;
50821;SDS011;36794;51.212;6.980;2022-09-03T08:54:57;2.55;;;0.60;;
50821;SDS011;36794;51.212;6.980;2022-09-03T08:57:24;1.75;;;0.68;;
50821;SDS011;36794;51.212;6.980;2022-09-03T08:59:52;2.97;;;0.70;;
50821;SDS011;36794;51.212;6.980;2022-09-03T09:02:35;6.97;;;0.77;;
50821;SDS011;36794;51.212;6.980;2022-09-03T09:07:37;1.60;;;0.60;;
50821;SDS011;36794;51.212;6.980;2022-09-03T09:21:16;1.48;;;0.68;;
50821;SDS011;36794;51.212;6.980;2022-09-03T09:23:43;2.85;;;0.60;;
50821;SDS011;36794;51.212;6.980;2022-09-03T09:26:12;2.30;;;0.65;;
50821;SDS011;36794;51.212;6.980;2022-09-03T09:28:39;2.53;;;0.63;;
50821;SDS011;36794;51.212;6.980;2022-09-03T09:31:06;1.23;;;0.55;;
50821;SDS011;36794;51.212;6.980;2022-09-03T09:33:36;1.73;;;0.60;;
50821;SDS011;36794;51.212;6.980;2022-09-03T09:36:06;5.65;;;1.00;;
50821;SDS011;36794;51.212;6.980;2022-09-03T09:38:35;1.67;;;0.75;;
50821;SDS011;36794;51.212;6.980;2022-09-03T09:43:33;2.53;;;0.93;;
50821;SDS011;36794;51.212;6.980;2022-09-03T09:46:05;3.90;;;1.10;;
50821;SDS011;36794;51.212;6.980;2022-09-03T09:48:32;4.18;;;0.60;;
50821;SDS011;36794;51.212;6.980;2022-09-03T09:51:04;1.75;;;0.68;;
50821;SDS011;36794;51.212;6.980;2022-09-03T09:53:30;4.03;;;0.77;;
50821;SDS011;36794;51.212;6.980;2022-09-03T09:55:57;3.13;;;0.68;;
50821;SDS011;36794;51.212;6.980;2022-09-03T09:58:24;4.05;;;0.70;;
50821;SDS011;36794;51.212;6.980;2022-09-03T10:00:55;2.45;;;0.57;;
50821;SDS011;36794;51.212;6.980;2022-09-03T10:03:22;3.13;;;0.50;;
50821;SDS011;36794;51.212;6.980;2022-09-03T10:06:00;1.55;;;0.85;;
50821;SDS011;36794;51.212;6.980;2022-09-03T10:08:46;1.40;;;0.50;;
50821;SDS011;36794;51.212;6.980;2022-09-03T10:11:12;5.68;;;0.88;;
50821;SDS011;36794;51.212;6.980;2022-09-03T10:13:39;4.53;;;0.80;;
50821;SDS011;36794;51.212;6.980;2022-09-03T10:16:14;1.17;;;0.70;;
50821;SDS011;36794;51.212;6.980;2022-09-03T10:18:51;3.33;;;0.70;;
50821;SDS011;36794;51.212;6.980;2022-09-03T10:28:58;4.05;;;1.00;;
50821;SDS011;36794;51.212;6.980;2022-09-03T10:39:18;2.25;;;0.75;;
50821;SDS011;36794;51.212;6.980;2022-09-03T10:42:31;2.38;;;0.63;;
50821;SDS011;36794;51.212;6.980;2022-09-03T10:50:08;1.58;;;0.70;;
50821;SDS011;36794;51.212;6.980;2022-09-03T10:57:45;7.13;;;1.00;;
50821;SDS011;36794;51.212;6.980;2022-09-03T11:00:14;2.10;;;0.80;;
50821;SDS011;36794;51.212;6.980;2022-09-03T11:05:34;5.93;;;0.90;;
50821;SDS011;36794;51.212;6.980;2022-09-03T11:10:32;2.72;;;0.88;;
50821;SDS011;36794;51.212;6.980;2022-09-03T11:15:35;2.70;;;0.90;;
50821;SDS011;36794;51.212;6.980;2022-09-03T11:20:28;2.80;;;0.90;;
50821;SDS011;36794;51.212;6.980;2022-09-03T11:22:56;2.53;;;0.80;;
50821;SDS011;36794;51.212;6.980;2022-09-03T11:25:26;3.03;;;0.77;;
50821;SDS011;36794;51.212;6.980;2022-09-03T11:28:02;3.97;;;0.80;;
50821;SDS011;36794;51.212;6.980;2022-09-03T11:30:46;3.95;;;0.93;;
50821;SDS011;36794;51.212;6.980;2022-09-03T11:33:16;2.92;;;0.98;;
50821;SDS011;36794;51.212;6.980;2022-09-03T11:35:44;1.88;;;1.10;;
50821;SDS011;36794;51.212;6.980;2022-09-03T11:40:42;6.38;;;1.27;;
50821;SDS011;36794;51.212;6.980;2022-09-03T11:48:48;3.75;;;0.80;;
50821;SDS011;36794;51.212;6.980;2022-09-03T11:51:19;6.65;;;0.98;;
50821;SDS011;36794;51.212;6.980;2022-09-03T11:53:58;9.93;;;3.17;;
50821;SDS011;36794;51.212;6.980;2022-09-03T11:56:25;3.08;;;1.95;;
50821;SDS011;36794;51.212;6.980;2022-09-03T11:58:59;13.95;;;8.45;;
50821;SDS011;36794;51.212;6.980;2022-09-03T12:01:25;6.60;;;3.72;;
50821;SDS011;36794;51.212;6.980;2022-09-03T12:04:05;4.68;;;1.70;;
50821;SDS011;36794;51.212;6.980;2022-09-03T12:21:51;1.75;;;1.02;;
50821;SDS011;36794;51.212;6.980;2022-09-03T12:24:19;3.05;;;1.00;;
50821;SDS011;36794;51.212;6.980;2022-09-03T12:26:47;1.52;;;0.68;;
50821;SDS011;36794;51.212;6.980;2022-09-03T12:29:24;3.10;;;1.00;;
50821;SDS011;36794;51.212;6.980;2022-09-03T12:31:50;5.72;;;1.25;;
50821;SDS011;36794;51.212;6.980;2022-09-03T12:34:20;2.75;;;0.90;;
50821;SDS011;36794;51.212;6.980;2022-09-03T12:36:47;3.95;;;0.90;;
50821;SDS011;36794;51.212;6.980;2022-09-03T12:44:09;3.28;;;0.95;;
50821;SDS011;36794;51.212;6.980;2022-09-03T12:46:35;9.25;;;1.38;;
50821;SDS011;36794;51.212;6.980;2022-09-03T12:49:02;3.25;;;1.17;;
50821;SDS011;36794;51.212;6.980;2022-09-03T12:51:35;3.53;;;1.27;;
50821;SDS011;36794;51.212;6.980;2022-09-03T12:54:01;4.32;;;1.23;;
50821;SDS011;36794;51.212;6.980;2022-09-03T12:56:28;3.85;;;1.10;;
50821;SDS011;36794;51.212;6.980;2022-09-03T12:58:58;3.90;;;1.30;;
50821;SDS011;36794;51.212;6.980;2022-09-03T13:01:26;1.98;;;1.00;;
50821;SDS011;36794;51.212;6.980;2022-09-03T13:06:32;5.32;;;1.50;;
50821;SDS011;36794;51.212;6.980;2022-09-03T13:09:02;2.03;;;1.23;;
50821;SDS011;36794;51.212;6.980;2022-09-03T13:11:31;5.85;;;1.35;;
50821;SDS011;36794;51.212;6.980;2022-09-03T13:14:05;2.75;;;1.10;;
50821;SDS011;36794;51.212;6.980;2022-09-03T13:24:07;3.45;;;1.63;;
50821;SDS011;36794;51.212;6.980;2022-09-03T13:32:11;2.55;;;1.15;;
50821;SDS011;36794;51.212;6.980;2022-09-03T13:34:41;4.03;;;1.20;;
50821;SDS011;36794;51.212;6.980;2022-09-03T13:39:55;2.22;;;1.17;;
50821;SDS011;36794;51.212;6.980;2022-09-03T13:42:31;2.78;;;1.23;;
50821;SDS011;36794;51.212;6.980;2022-09-03T13:45:07;1.13;;;1.00;;
50821;SDS011;36794;51.212;6.980;2022-09-03T13:47:44;2.28;;;1.27;;
50821;SDS011;36794;51.212;6.980;2022-09-03T13:50:40;1.20;;;1.00;;
50821;SDS011;36794;51.212;6.980;2022-09-03T13:53:17;1.80;;;1.05;;
50821;SDS011;36794;51.212;6.980;2022-09-03T13:55:47;5.85;;;1.30;;
50821;SDS011;36794;51.212;6.980;2022-09-03T14:21:32;2.75;;;1.10;;
50821;SDS011;36794;51.212;6.980;2022-09-03T14:24:03;1.80;;;0.73;;
50821;SDS011;36794;51.212;6.980;2022-09-03T14:29:17;1.95;;;1.10;;
50821;SDS011;36794;51.212;6.980;2022-09-03T14:42:13;3.30;;;1.08;;
50821;SDS011;36794;51.212;6.980;2022-09-03T14:55:09;2.72;;;1.23;;
50821;SDS011;36794;51.212;6.980;2022-09-03T15:03:14;1.73;;;1.30;;
50821;SDS011;36794;51.212;6.980;2022-09-03T15:11:09;2.90;;;1.17;;
50821;SDS011;36794;51.212;6.980;2022-09-03T15:13:42;2.65;;;0.80;;
50821;SDS011;36794;51.212;6.980;2022-09-03T15:18:49;2.33;;;1.20;;
50821;SDS011;36794;51.212;6.980;2022-09-03T15:24:15;3.78;;;1.20;;
50821;SDS011;36794;51.212;6.980;2022-09-03T15:26:49;2.75;;;1.08;;
50821;SDS011;36794;51.212;6.980;2022-09-03T15:31:54;2.47;;;1.05;;
50821;SDS011;36794;51.212;6.980;2022-09-03T15:34:41;3.22;;;1.20;;
50821;SDS011;36794;51.212;6.980;2022-09-03T15:37:12;3.03;;;0.90;;
50821;SDS011;36794;51.212;6.980;2022-09-03T15:39:42;2.22;;;0.90;;
50821;SDS011;36794;51.212;6.980;2022-09-03T15:42:10;1.50;;;0.80;;
50821;SDS011;36794;51.212;6.980;2022-09-03T15:44:46;6.75;;;1.02;;
50821;SDS011;36794;51.212;6.980;2022-09-03T15:47:27;4.13;;;1.75;;
50821;SDS011;36794;51.212;6.980;2022-09-03T15:50:13;5.22;;;1.30;;
50821;SDS011;36794;51.212;6.980;2022-09-03T15:55:39;0.95;;;0.70;;
50821;SDS011;36794;51.212;6.980;2022-09-03T16:03:15;3.20;;;1.52;;
50821;SDS011;36794;51.212;6.980;2022-09-03T16:05:46;1.73;;;1.20;;
50821;SDS011;36794;51.212;6.980;2022-09-03T16:08:19;2.45;;;1.00;;
50821;SDS011;36794;51.212;6.980;2022-09-03T16:13:23;2.13;;;1.10;;
50821;SDS011;36794;51.212;6.980;2022-09-03T16:15:59;5.70;;;1.20;;
50821;SDS011;36794;51.212;6.980;2022-09-03T16:18:28;3.38;;;1.30;;
50821;SDS011;36794;51.212;6.980;2022-09-03T16:26:03;1.30;;;1.00;;
50821;SDS011;36794;51.212;6.980;2022-09-03T16:28:52;2.85;;;1.10;;
50821;SDS011;36794;51.212;6.980;2022-09-03T16:36:52;2.50;;;1.27;;
50821;SDS011;36794;51.212;6.980;2022-09-03T16:41:56;3.67;;;1.15;;
50821;SDS011;36794;51.212;6.980;2022-09-03T16:44:38;2.22;;;1.02;;
50821;SDS011;36794;51.212;6.980;2022-09-03T17:01:21;2.92;;;1.15;;
50821;SDS011;36794;51.212;6.980;2022-09-03T17:11:23;2.97;;;1.13;;
50821;SDS011;36794;51.212;6.980;2022-09-03T17:16:29;1.38;;;1.10;;
50821;SDS011;36794;51.212;6.980;2022-09-03T17:19:08;6.28;;;1.17;;
50821;SDS011;36794;51.212;6.980;2022-09-03T17:21:56;3.47;;;1.40;;
50821;SDS011;36794;51.212;6.980;2022-09-03T17:24:45;3.55;;;1.10;;
50821;SDS011;36794;51.212;6.980;2022-09-03T17:27:24;2.83;;;1.60;;
50821;SDS011;36794;51.212;6.980;2022-09-03T17:35:17;2.85;;;1.63;;
50821;SDS011;36794;51.212;6.980;2022-09-03T17:37:48;1.77;;;1.40;;
50821;SDS011;36794;51.212;6.980;2022-09-03T17:43:15;3.05;;;1.58;;
50821;SDS011;36794;51.212;6.980;2022-09-03T17:51:00;3.63;;;1.52;;
50821;SDS011;36794;51.212;6.980;2022-09-03T17:56:03;5.20;;;1.90;;
50821;SDS011;36794;51.212;6.980;2022-09-03T18:01:16;5.28;;;1.40;;
50821;SDS011;36794;51.212;6.980;2022-09-03T18:08:53;4.75;;;1.70;;
50821;SDS011;36794;51.212;6.980;2022-09-03T18:11:29;3.50;;;1.80;;
50821;SDS011;36794;51.212;6.980;2022-09-03T18:16:44;6.97;;;2.13;;
50821;SDS011;36794;51.212;6.980;2022-09-03T18:24:47;4.28;;;2.20;;
50821;SDS011;36794;51.212;6.980;2022-09-03T18:27:33;3.60;;;2.22;;
50821;SDS011;36794;51.212;6.980;2022-09-03T18:30:19;4.40;;;2.30;;
50821;SDS011;36794;51.212;6.980;2022-09-03T18:35:49;6.43;;;2.20;;
50821;SDS011;36794;51.212;6.980;2022-09-03T18:38:34;4.63;;;2.58;;
50821;SDS011;36794;51.212;6.980;2022-09-03T18:41:32;5.13;;;2.40;;
50821;SDS011;36794;51.212;6.980;2022-09-03T18:53:16;4.32;;;2.55;;
50821;SDS011;36794;51.212;6.980;2022-09-03T19:01:43;6.45;;;2.50;;
50821;SDS011;36794;51.212;6.980;2022-09-03T19:10:17;5.38;;;2.08;;
50821;SDS011;36794;51.212;6.980;2022-09-03T19:16:10;4.57;;;2.17;;
50821;SDS011;36794;51.212;6.980;2022-09-03T19:21:43;4.25;;;2.00;;
50821;SDS011;36794;51.212;6.980;2022-09-03T19:24:31;4.57;;;1.52;;
50821;SDS011;36794;51.212;6.980;2022-09-03T19:27:30;2.90;;;2.05;;
50821;SDS011;36794;51.212;6.980;2022-09-03T19:30:20;3.45;;;1.30;;
50821;SDS011;36794;51.212;6.980;2022-09-03T19:51:03;2.50;;;1.65;;
50821;SDS011;36794;51.212;6.980;2022-09-03T19:53:51;1.70;;;1.33;;
50821;SDS011;36794;51.212;6.980;2022-09-03T19:56:37;4.75;;;1.80;;
50821;SDS011;36794;51.212;6.980;2022-09-03T19:59:23;4.95;;;2.05;;
50821;SDS011;36794;51.212;6.980;2022-09-03T20:02:10;2.25;;;1.60;;
50821;SDS011;36794;51.212;6.980;2022-09-03T20:04:58;2.80;;;1.90;;
50821;SDS011;36794;51.212;6.980;2022-09-03T20:07:44;2.55;;;1.70;;
50821;SDS011;36794;51.212;6.980;2022-09-03T20:10:29;4.00;;;1.77;;
50821;SDS011;36794;51.212;6.980;2022-09-03T20:13:04;2.55;;;1.40;;
50821;SDS011;36794;51.212;6.980;2022-09-03T20:15:40;2.45;;;1.83;;
50821;SDS011;36794;51.212;6.980;2022-09-03T20:20:53;3.22;;;1.45;;
50821;SDS011;36794;51.212;6.980;2022-09-03T20:26:08;1.63;;;1.40;;
50821;SDS011;36794;51.212;6.980;2022-09-03T20:31:43;1.83;;;1.45;;
50821;SDS011;36794;51.212;6.980;2022-09-03T20:34:27;1.60;;;1.23;;
50821;SDS011;36794;51.212;6.980;2022-09-03T20:52:03;1.98;;;1.48;;
50821;SDS011;36794;51.212;6.980;2022-09-03T20:54:34;1.85;;;1.25;;
50821;SDS011;36794;51.212;6.980;2022-09-03T21:07:40;2.17;;;1.55;;
50821;SDS011;36794;51.212;6.980;2022-09-03T21:10:13;3.05;;;1.42;;
50821;SDS011;36794;51.212;6.980;2022-09-03T21:12:48;2.88;;;1.75;;
50821;SDS011;36794;51.212;6.980;2022-09-03T21:15:28;2.10;;;1.50;;
50821;SDS011;36794;51.212;6.980;2022-09-03T21:23:34;1.63;;;1.45;;
50821;SDS011;36794;51.212;6.980;2022-09-03T21:28:37;3.80;;;1.70;;
50821;SDS011;36794;51.212;6.980;2022-09-03T21:31:17;2.13;;;1.65;;
50821;SDS011;36794;51.212;6.980;2022-09-03T21:33:45;2.22;;;1.63;;
50821;SDS011;36794;51.212;6.980;2022-09-03T21:36:14;2.30;;;1.65;;
50821;SDS011;36794;51.212;6.980;2022-09-03T21:38:42;2.55;;;2.03;;
50821;SDS011;36794;51.212;6.980;2022-09-03T21:41:18;2.45;;;1.88;;
50821;SDS011;36794;51.212;6.980;2022-09-03T21:43:49;4.60;;;1.70;;
50821;SDS011;36794;51.212;6.980;2022-09-03T21:46:19;2.67;;;1.83;;
50821;SDS011;36794;51.212;6.980;2022-09-03T21:48:55;2.20;;;1.90;;
50821;SDS011;36794;51.212;6.980;2022-09-03T21:52:04;2.15;;;1.60;;